sensor_id;sensor_type;location;lat;lon;timestamp;temperature;humidity
10431;DHT22;5262;59.958;17.726;2024-02-23T00:02:25;3.00;99.90
10431;DHT22;5262;59.958;17.726;2024-02-23T00:04:50;3.00;99.90
10431;DHT22;5262;59.958;17.726;2024-02-23T00:07:16;3.10;99.90
10431;DHT22;5262;59.958;17.726;2024-02-23T00:09:42;3.10;99.90
10431;DHT22;5262;59.958;17.726;2024-02-23T00:12:07;3.10;99.90
10431;DHT22;5262;59.958;17.726;2024-02-23T00:14:34;3.00;99.90
10431;DHT22;5262;59.958;17.726;2024-02-23T00:17:03;3.10;99.90
10431;DHT22;5262;59.958;17.726;2024-02-23T00:19:30;3.10;99.90
10431;DHT22;5262;59.958;17.726;2024-02-23T00:21:56;3.00;99.90
10431;DHT22;5262;59.958;17.726;2024-02-23T00:24:21;3.00;99.90
10431;DHT22;5262;59.958;17.726;2024-02-23T00:26:48;3.00;99.90
10431;DHT22;5262;59.958;17.726;2024-02-23T00:29:14;3.00;99.90
10431;DHT22;5262;59.958;17.726;2024-02-23T00:31:40;3.00;99.90
10431;DHT22;5262;59.958;17.726;2024-02-23T00:34:08;3.00;99.90
10431;DHT22;5262;59.958;17.726;2024-02-23T00:36:42;3.00;99.90
10431;DHT22;5262;59.958;17.726;2024-02-23T00:39:08;3.00;99.90
10431;DHT22;5262;59.958;17.726;2024-02-23T00:41:34;2.90;99.90
10431;DHT22;5262;59.958;17.726;2024-02-23T00:44:00;2.90;99.90
10431;DHT22;5262;59.958;17.726;2024-02-23T00:46:26;2.90;99.90
10431;DHT22;5262;59.958;17.726;2024-02-23T00:48:52;2.90;99.90
10431;DHT22;5262;59.958;17.726;2024-02-23T00:51:17;2.90;99.90
10431;DHT22;5262;59.958;17.726;2024-02-23T00:53:43;3.00;99.90
10431;DHT22;5262;59.958;17.726;2024-02-23T00:56:09;2.90;99.90
10431;DHT22;5262;59.958;17.726;2024-02-23T00:58:34;2.90;99.90
10431;DHT22;5262;59.958;17.726;2024-02-23T01:01:00;3.00;99.90
10431;DHT22;5262;59.958;17.726;2024-02-23T01:03:26;2.90;99.90
10431;DHT22;5262;59.958;17.726;2024-02-23T01:05:52;2.90;99.90
10431;DHT22;5262;59.958;17.726;2024-02-23T01:08:17;2.90;99.90
10431;DHT22;5262;59.958;17.726;2024-02-23T01:10:43;2.90;99.90
10431;DHT22;5262;59.958;17.726;2024-02-23T01:13:09;2.90;99.90
10431;DHT22;5262;59.958;17.726;2024-02-23T01:15:34;3.00;99.90
10431;DHT22;5262;59.958;17.726;2024-02-23T01:18:00;2.90;99.90
10431;DHT22;5262;59.958;17.726;2024-02-23T01:20:26;3.00;99.90
10431;DHT22;5262;59.958;17.726;2024-02-23T01:22:52;2.90;99.90
10431;DHT22;5262;59.958;17.726;2024-02-23T01:25:17;3.00;99.90
10431;DHT22;5262;59.958;17.726;2024-02-23T01:27:43;2.90;99.90
10431;DHT22;5262;59.958;17.726;2024-02-23T01:30:10;2.90;99.90
10431;DHT22;5262;59.958;17.726;2024-02-23T01:32:36;2.90;99.90
10431;DHT22;5262;59.958;17.726;2024-02-23T01:35:07;2.90;99.90
10431;DHT22;5262;59.958;17.726;2024-02-23T01:37:34;2.90;99.90
10431;DHT22;5262;59.958;17.726;2024-02-23T01:40:00;2.90;99.90
10431;DHT22;5262;59.958;17.726;2024-02-23T01:42:26;2.80;99.90
10431;DHT22;5262;59.958;17.726;2024-02-23T01:44:52;2.80;99.90
10431;DHT22;5262;59.958;17.726;2024-02-23T01:47:18;2.80;99.90
10431;DHT22;5262;59.958;17.726;2024-02-23T01:49:46;2.90;99.90
10431;DHT22;5262;59.958;17.726;2024-02-23T01:52:13;2.90;99.90
10431;DHT22;5262;59.958;17.726;2024-02-23T01:54:40;2.90;99.90
10431;DHT22;5262;59.958;17.726;2024-02-23T01:57:07;2.90;99.90
10431;DHT22;5262;59.958;17.726;2024-02-23T01:59:38;2.90;99.90
10431;DHT22;5262;59.958;17.726;2024-02-23T02:02:04;2.90;99.90
10431;DHT22;5262;59.958;17.726;2024-02-23T02:04:30;2.90;99.90
10431;DHT22;5262;59.958;17.726;2024-02-23T02:06:57;2.90;99.90
10431;DHT22;5262;59.958;17.726;2024-02-23T02:09:23;2.90;99.90
10431;DHT22;5262;59.958;17.726;2024-02-23T02:11:49;2.90;99.90
10431;DHT22;5262;59.958;17.726;2024-02-23T02:14:16;2.90;99.90
10431;DHT22;5262;59.958;17.726;2024-02-23T02:16:41;2.80;99.90
10431;DHT22;5262;59.958;17.726;2024-02-23T02:19:07;2.90;99.90
10431;DHT22;5262;59.958;17.726;2024-02-23T02:21:33;2.90;99.90
10431;DHT22;5262;59.958;17.726;2024-02-23T02:23:59;2.90;99.90
10431;DHT22;5262;59.958;17.726;2024-02-23T02:26:25;2.90;99.90
10431;DHT22;5262;59.958;17.726;2024-02-23T02:28:50;2.90;99.90
10431;DHT22;5262;59.958;17.726;2024-02-23T02:31:18;2.90;99.90
10431;DHT22;5262;59.958;17.726;2024-02-23T02:33:43;2.90;99.90
10431;DHT22;5262;59.958;17.726;2024-02-23T02:36:09;2.90;99.90
10431;DHT22;5262;59.958;17.726;2024-02-23T02:38:35;3.00;99.90
10431;DHT22;5262;59.958;17.726;2024-02-23T02:41:01;2.90;99.90
10431;DHT22;5262;59.958;17.726;2024-02-23T02:43:27;2.90;99.90
10431;DHT22;5262;59.958;17.726;2024-02-23T02:45:53;3.00;99.90
10431;DHT22;5262;59.958;17.726;2024-02-23T02:48:19;2.90;99.90
10431;DHT22;5262;59.958;17.726;2024-02-23T02:50:44;3.00;99.90
10431;DHT22;5262;59.958;17.726;2024-02-23T02:53:10;2.90;99.90
10431;DHT22;5262;59.958;17.726;2024-02-23T02:55:39;2.90;99.90
10431;DHT22;5262;59.958;17.726;2024-02-23T02:58:05;2.90;99.90
10431;DHT22;5262;59.958;17.726;2024-02-23T03:00:30;2.90;99.90
10431;DHT22;5262;59.958;17.726;2024-02-23T03:02:57;2.90;99.90
10431;DHT22;5262;59.958;17.726;2024-02-23T03:05:22;2.90;99.90
10431;DHT22;5262;59.958;17.726;2024-02-23T03:07:48;2.90;99.90
10431;DHT22;5262;59.958;17.726;2024-02-23T03:10:14;2.90;99.90
10431;DHT22;5262;59.958;17.726;2024-02-23T03:12:39;2.90;99.90
10431;DHT22;5262;59.958;17.726;2024-02-23T03:15:05;2.90;99.90
10431;DHT22;5262;59.958;17.726;2024-02-23T03:17:31;2.90;99.90
10431;DHT22;5262;59.958;17.726;2024-02-23T03:19:58;2.90;99.90
10431;DHT22;5262;59.958;17.726;2024-02-23T03:22:24;2.90;99.90
10431;DHT22;5262;59.958;17.726;2024-02-23T03:24:50;2.90;99.90
10431;DHT22;5262;59.958;17.726;2024-02-23T03:27:15;2.90;99.90
10431;DHT22;5262;59.958;17.726;2024-02-23T03:29:41;2.80;99.90
10431;DHT22;5262;59.958;17.726;2024-02-23T03:32:07;2.80;99.90
10431;DHT22;5262;59.958;17.726;2024-02-23T03:34:33;2.90;99.90
10431;DHT22;5262;59.958;17.726;2024-02-23T03:36:58;2.90;99.90
10431;DHT22;5262;59.958;17.726;2024-02-23T03:39:25;2.90;99.90
10431;DHT22;5262;59.958;17.726;2024-02-23T03:41:51;2.90;99.90
10431;DHT22;5262;59.958;17.726;2024-02-23T03:44:16;3.00;99.90
10431;DHT22;5262;59.958;17.726;2024-02-23T03:46:42;2.90;99.90
10431;DHT22;5262;59.958;17.726;2024-02-23T03:49:08;3.00;99.90
10431;DHT22;5262;59.958;17.726;2024-02-23T03:51:33;2.90;99.90
10431;DHT22;5262;59.958;17.726;2024-02-23T03:54:02;2.90;99.90
10431;DHT22;5262;59.958;17.726;2024-02-23T03:56:28;3.00;99.90
10431;DHT22;5262;59.958;17.726;2024-02-23T03:58:54;3.00;99.90
10431;DHT22;5262;59.958;17.726;2024-02-23T04:01:19;3.00;99.90
10431;DHT22;5262;59.958;17.726;2024-02-23T04:03:45;3.00;99.90
10431;DHT22;5262;59.958;17.726;2024-02-23T04:06:11;3.00;99.90
10431;DHT22;5262;59.958;17.726;2024-02-23T04:08:36;3.00;99.90
10431;DHT22;5262;59.958;17.726;2024-02-23T04:11:03;3.00;99.90
10431;DHT22;5262;59.958;17.726;2024-02-23T04:13:30;3.00;99.90
10431;DHT22;5262;59.958;17.726;2024-02-23T04:15:56;3.10;99.90
10431;DHT22;5262;59.958;17.726;2024-02-23T04:18:22;3.10;99.90
10431;DHT22;5262;59.958;17.726;2024-02-23T04:20:48;3.10;99.90
10431;DHT22;5262;59.958;17.726;2024-02-23T04:23:14;3.00;99.90
10431;DHT22;5262;59.958;17.726;2024-02-23T04:25:40;3.10;99.90
10431;DHT22;5262;59.958;17.726;2024-02-23T04:28:05;3.10;99.90
10431;DHT22;5262;59.958;17.726;2024-02-23T04:30:31;3.10;99.90
10431;DHT22;5262;59.958;17.726;2024-02-23T04:32:56;3.10;99.90
10431;DHT22;5262;59.958;17.726;2024-02-23T04:35:22;3.10;99.90
10431;DHT22;5262;59.958;17.726;2024-02-23T04:37:48;3.10;99.90
10431;DHT22;5262;59.958;17.726;2024-02-23T04:40:15;3.20;99.90
10431;DHT22;5262;59.958;17.726;2024-02-23T04:42:40;3.10;99.90
10431;DHT22;5262;59.958;17.726;2024-02-23T04:45:08;3.20;99.90
10431;DHT22;5262;59.958;17.726;2024-02-23T04:47:34;3.20;99.90
10431;DHT22;5262;59.958;17.726;2024-02-23T04:50:00;3.20;99.90
10431;DHT22;5262;59.958;17.726;2024-02-23T04:52:28;3.20;99.90
10431;DHT22;5262;59.958;17.726;2024-02-23T04:54:53;3.30;99.90
10431;DHT22;5262;59.958;17.726;2024-02-23T04:57:19;3.20;99.90
10431;DHT22;5262;59.958;17.726;2024-02-23T04:59:45;3.20;99.90
10431;DHT22;5262;59.958;17.726;2024-02-23T05:02:10;3.20;99.90
10431;DHT22;5262;59.958;17.726;2024-02-23T05:04:36;3.20;99.90
10431;DHT22;5262;59.958;17.726;2024-02-23T05:07:02;3.20;99.90
10431;DHT22;5262;59.958;17.726;2024-02-23T05:09:28;3.30;99.90
10431;DHT22;5262;59.958;17.726;2024-02-23T05:11:54;3.40;99.90
10431;DHT22;5262;59.958;17.726;2024-02-23T05:14:20;3.40;99.90
10431;DHT22;5262;59.958;17.726;2024-02-23T05:16:46;3.40;99.90
10431;DHT22;5262;59.958;17.726;2024-02-23T05:19:11;3.40;99.90
10431;DHT22;5262;59.958;17.726;2024-02-23T05:21:37;3.40;99.90
10431;DHT22;5262;59.958;17.726;2024-02-23T05:24:03;3.50;99.90
10431;DHT22;5262;59.958;17.726;2024-02-23T05:26:29;3.40;99.90
10431;DHT22;5262;59.958;17.726;2024-02-23T05:28:54;3.40;99.90
10431;DHT22;5262;59.958;17.726;2024-02-23T05:31:20;3.40;99.90
10431;DHT22;5262;59.958;17.726;2024-02-23T05:34:06;3.40;99.90
10431;DHT22;5262;59.958;17.726;2024-02-23T05:36:31;3.40;99.90
10431;DHT22;5262;59.958;17.726;2024-02-23T05:38:57;3.50;99.90
10431;DHT22;5262;59.958;17.726;2024-02-23T05:41:22;3.50;99.90
10431;DHT22;5262;59.958;17.726;2024-02-23T05:43:48;3.50;99.90
10431;DHT22;5262;59.958;17.726;2024-02-23T05:46:14;3.60;99.90
10431;DHT22;5262;59.958;17.726;2024-02-23T05:48:39;3.50;99.90
10431;DHT22;5262;59.958;17.726;2024-02-23T05:51:05;3.60;99.90
10431;DHT22;5262;59.958;17.726;2024-02-23T05:53:30;3.50;99.90
10431;DHT22;5262;59.958;17.726;2024-02-23T05:55:58;3.60;99.90
10431;DHT22;5262;59.958;17.726;2024-02-23T05:58:24;3.60;99.90
10431;DHT22;5262;59.958;17.726;2024-02-23T06:00:49;3.60;99.90
10431;DHT22;5262;59.958;17.726;2024-02-23T06:03:17;3.60;99.90
10431;DHT22;5262;59.958;17.726;2024-02-23T06:05:43;3.60;99.90
10431;DHT22;5262;59.958;17.726;2024-02-23T06:08:09;3.60;99.90
10431;DHT22;5262;59.958;17.726;2024-02-23T06:10:35;3.60;99.90
10431;DHT22;5262;59.958;17.726;2024-02-23T06:13:00;3.60;99.90
10431;DHT22;5262;59.958;17.726;2024-02-23T06:15:26;3.60;99.90
10431;DHT22;5262;59.958;17.726;2024-02-23T06:17:51;3.50;99.90
10431;DHT22;5262;59.958;17.726;2024-02-23T06:20:18;3.70;99.90
10431;DHT22;5262;59.958;17.726;2024-02-23T06:22:43;3.60;99.90
10431;DHT22;5262;59.958;17.726;2024-02-23T06:25:09;3.60;99.90
10431;DHT22;5262;59.958;17.726;2024-02-23T06:27:35;3.60;99.90
10431;DHT22;5262;59.958;17.726;2024-02-23T06:30:01;3.70;99.90
10431;DHT22;5262;59.958;17.726;2024-02-23T06:32:27;3.70;99.90
10431;DHT22;5262;59.958;17.726;2024-02-23T06:34:53;3.70;99.90
10431;DHT22;5262;59.958;17.726;2024-02-23T06:37:20;3.70;99.90
10431;DHT22;5262;59.958;17.726;2024-02-23T06:39:45;3.80;99.90
10431;DHT22;5262;59.958;17.726;2024-02-23T06:42:15;3.70;99.90
10431;DHT22;5262;59.958;17.726;2024-02-23T06:44:41;3.80;99.90
10431;DHT22;5262;59.958;17.726;2024-02-23T06:47:07;3.80;99.90
10431;DHT22;5262;59.958;17.726;2024-02-23T06:49:32;3.70;99.90
10431;DHT22;5262;59.958;17.726;2024-02-23T06:51:58;3.80;99.90
10431;DHT22;5262;59.958;17.726;2024-02-23T06:54:23;3.80;99.90
10431;DHT22;5262;59.958;17.726;2024-02-23T06:56:49;3.80;99.90
10431;DHT22;5262;59.958;17.726;2024-02-23T06:59:15;3.80;99.90
10431;DHT22;5262;59.958;17.726;2024-02-23T07:01:50;3.80;99.90
10431;DHT22;5262;59.958;17.726;2024-02-23T07:04:16;3.80;99.90
10431;DHT22;5262;59.958;17.726;2024-02-23T07:06:42;3.80;99.90
10431;DHT22;5262;59.958;17.726;2024-02-23T07:09:08;3.80;99.90
10431;DHT22;5262;59.958;17.726;2024-02-23T07:11:34;3.90;99.90
10431;DHT22;5262;59.958;17.726;2024-02-23T07:14:00;3.80;99.90
10431;DHT22;5262;59.958;17.726;2024-02-23T07:16:25;3.90;99.90
10431;DHT22;5262;59.958;17.726;2024-02-23T07:18:51;3.90;99.90
10431;DHT22;5262;59.958;17.726;2024-02-23T07:21:17;3.90;99.90
10431;DHT22;5262;59.958;17.726;2024-02-23T07:23:43;3.90;99.90
10431;DHT22;5262;59.958;17.726;2024-02-23T07:26:09;3.90;99.90
10431;DHT22;5262;59.958;17.726;2024-02-23T07:28:34;3.90;99.90
10431;DHT22;5262;59.958;17.726;2024-02-23T07:31:00;3.90;99.90
10431;DHT22;5262;59.958;17.726;2024-02-23T07:33:26;3.90;99.90
10431;DHT22;5262;59.958;17.726;2024-02-23T07:35:51;4.00;99.90
10431;DHT22;5262;59.958;17.726;2024-02-23T07:38:17;4.00;99.90
10431;DHT22;5262;59.958;17.726;2024-02-23T07:40:46;4.00;99.90
10431;DHT22;5262;59.958;17.726;2024-02-23T07:43:11;4.00;99.90
10431;DHT22;5262;59.958;17.726;2024-02-23T07:45:37;4.00;99.90
10431;DHT22;5262;59.958;17.726;2024-02-23T07:48:03;4.10;99.90
10431;DHT22;5262;59.958;17.726;2024-02-23T07:50:29;4.10;99.90
10431;DHT22;5262;59.958;17.726;2024-02-23T07:52:55;4.10;99.90
10431;DHT22;5262;59.958;17.726;2024-02-23T07:55:20;4.10;99.90
10431;DHT22;5262;59.958;17.726;2024-02-23T07:57:48;4.10;99.90
10431;DHT22;5262;59.958;17.726;2024-02-23T08:00:14;4.10;99.90
10431;DHT22;5262;59.958;17.726;2024-02-23T08:02:39;4.10;99.90
10431;DHT22;5262;59.958;17.726;2024-02-23T08:05:06;4.10;99.90
10431;DHT22;5262;59.958;17.726;2024-02-23T08:07:32;4.10;99.90
10431;DHT22;5262;59.958;17.726;2024-02-23T08:09:58;4.10;99.90
10431;DHT22;5262;59.958;17.726;2024-02-23T08:12:24;4.10;99.90
10431;DHT22;5262;59.958;17.726;2024-02-23T08:14:49;4.10;99.90
10431;DHT22;5262;59.958;17.726;2024-02-23T08:17:18;4.10;99.90
10431;DHT22;5262;59.958;17.726;2024-02-23T08:19:44;4.20;99.90
10431;DHT22;5262;59.958;17.726;2024-02-23T08:22:10;4.20;99.90
10431;DHT22;5262;59.958;17.726;2024-02-23T08:24:35;4.20;99.90
10431;DHT22;5262;59.958;17.726;2024-02-23T08:27:01;4.20;99.90
10431;DHT22;5262;59.958;17.726;2024-02-23T08:29:28;4.20;99.90
10431;DHT22;5262;59.958;17.726;2024-02-23T08:31:53;4.20;99.90
10431;DHT22;5262;59.958;17.726;2024-02-23T08:34:19;4.10;99.90
10431;DHT22;5262;59.958;17.726;2024-02-23T08:36:45;4.10;99.90
10431;DHT22;5262;59.958;17.726;2024-02-23T08:39:10;4.10;99.90
10431;DHT22;5262;59.958;17.726;2024-02-23T08:41:36;4.20;99.90
10431;DHT22;5262;59.958;17.726;2024-02-23T08:44:02;4.10;99.90
10431;DHT22;5262;59.958;17.726;2024-02-23T08:46:28;4.20;99.90
10431;DHT22;5262;59.958;17.726;2024-02-23T08:48:53;4.10;99.90
10431;DHT22;5262;59.958;17.726;2024-02-23T08:51:19;4.10;99.90
10431;DHT22;5262;59.958;17.726;2024-02-23T08:53:45;4.10;99.90
10431;DHT22;5262;59.958;17.726;2024-02-23T08:56:12;4.10;99.90
10431;DHT22;5262;59.958;17.726;2024-02-23T08:58:37;4.00;99.90
10431;DHT22;5262;59.958;17.726;2024-02-23T09:01:03;4.10;99.90
10431;DHT22;5262;59.958;17.726;2024-02-23T09:03:30;4.10;99.90
10431;DHT22;5262;59.958;17.726;2024-02-23T09:05:57;4.10;99.90
10431;DHT22;5262;59.958;17.726;2024-02-23T09:08:23;4.10;99.90
10431;DHT22;5262;59.958;17.726;2024-02-23T09:10:48;4.10;99.90
10431;DHT22;5262;59.958;17.726;2024-02-23T09:13:14;4.10;99.90
10431;DHT22;5262;59.958;17.726;2024-02-23T09:15:40;4.20;99.90
10431;DHT22;5262;59.958;17.726;2024-02-23T09:18:07;4.20;99.90
10431;DHT22;5262;59.958;17.726;2024-02-23T09:20:33;4.20;99.90
10431;DHT22;5262;59.958;17.726;2024-02-23T09:22:59;4.20;99.90
10431;DHT22;5262;59.958;17.726;2024-02-23T09:25:24;4.20;99.90
10431;DHT22;5262;59.958;17.726;2024-02-23T09:27:50;4.20;99.90
10431;DHT22;5262;59.958;17.726;2024-02-23T09:30:16;4.20;99.90
10431;DHT22;5262;59.958;17.726;2024-02-23T09:32:42;4.20;99.90
10431;DHT22;5262;59.958;17.726;2024-02-23T09:35:08;4.20;99.90
10431;DHT22;5262;59.958;17.726;2024-02-23T09:37:33;4.20;99.90
10431;DHT22;5262;59.958;17.726;2024-02-23T09:39:59;4.30;99.90
10431;DHT22;5262;59.958;17.726;2024-02-23T09:42:25;4.20;99.90
10431;DHT22;5262;59.958;17.726;2024-02-23T09:44:58;4.30;99.90
10431;DHT22;5262;59.958;17.726;2024-02-23T09:47:28;4.30;99.90
10431;DHT22;5262;59.958;17.726;2024-02-23T09:49:54;4.30;99.90
10431;DHT22;5262;59.958;17.726;2024-02-23T09:52:21;4.40;99.90
10431;DHT22;5262;59.958;17.726;2024-02-23T09:54:48;4.30;99.90
10431;DHT22;5262;59.958;17.726;2024-02-23T09:57:14;4.40;99.90
10431;DHT22;5262;59.958;17.726;2024-02-23T09:59:41;4.40;99.90
10431;DHT22;5262;59.958;17.726;2024-02-23T10:02:16;4.40;99.90
10431;DHT22;5262;59.958;17.726;2024-02-23T10:04:43;4.50;99.90
10431;DHT22;5262;59.958;17.726;2024-02-23T10:07:09;4.50;99.90
10431;DHT22;5262;59.958;17.726;2024-02-23T10:09:35;4.50;99.90
10431;DHT22;5262;59.958;17.726;2024-02-23T10:12:02;4.60;99.90
10431;DHT22;5262;59.958;17.726;2024-02-23T10:14:27;4.60;99.90
10431;DHT22;5262;59.958;17.726;2024-02-23T10:16:53;4.70;99.90
10431;DHT22;5262;59.958;17.726;2024-02-23T10:19:21;4.70;99.90
10431;DHT22;5262;59.958;17.726;2024-02-23T10:21:46;4.80;99.90
10431;DHT22;5262;59.958;17.726;2024-02-23T10:24:13;4.80;99.90
10431;DHT22;5262;59.958;17.726;2024-02-23T10:26:38;4.90;99.90
10431;DHT22;5262;59.958;17.726;2024-02-23T10:29:04;4.90;99.90
10431;DHT22;5262;59.958;17.726;2024-02-23T10:31:35;5.10;99.90
10431;DHT22;5262;59.958;17.726;2024-02-23T10:34:08;5.30;99.90
10431;DHT22;5262;59.958;17.726;2024-02-23T10:36:41;5.40;99.90
10431;DHT22;5262;59.958;17.726;2024-02-23T10:39:11;5.70;99.90
10431;DHT22;5262;59.958;17.726;2024-02-23T10:41:42;5.70;99.90
10431;DHT22;5262;59.958;17.726;2024-02-23T10:44:09;6.50;99.90
10431;DHT22;5262;59.958;17.726;2024-02-23T10:46:37;7.40;99.90
10431;DHT22;5262;59.958;17.726;2024-02-23T10:49:03;7.00;99.90
10431;DHT22;5262;59.958;17.726;2024-02-23T10:51:28;6.40;99.90
10431;DHT22;5262;59.958;17.726;2024-02-23T10:53:55;6.00;99.90
10431;DHT22;5262;59.958;17.726;2024-02-23T10:56:21;6.00;99.90
10431;DHT22;5262;59.958;17.726;2024-02-23T10:58:48;6.10;99.90
10431;DHT22;5262;59.958;17.726;2024-02-23T11:01:14;5.90;99.90
10431;DHT22;5262;59.958;17.726;2024-02-23T11:03:43;6.00;99.90
10431;DHT22;5262;59.958;17.726;2024-02-23T11:06:10;6.40;99.90
10431;DHT22;5262;59.958;17.726;2024-02-23T11:08:37;6.50;99.90
10431;DHT22;5262;59.958;17.726;2024-02-23T11:11:09;7.70;99.90
10431;DHT22;5262;59.958;17.726;2024-02-23T11:13:36;8.80;99.90
10431;DHT22;5262;59.958;17.726;2024-02-23T11:16:03;9.40;99.90
10431;DHT22;5262;59.958;17.726;2024-02-23T11:18:29;10.30;99.90
10431;DHT22;5262;59.958;17.726;2024-02-23T11:20:58;11.20;99.90
10431;DHT22;5262;59.958;17.726;2024-02-23T11:23:24;11.50;99.90
10431;DHT22;5262;59.958;17.726;2024-02-23T11:28:28;11.70;99.90
10431;DHT22;5262;59.958;17.726;2024-02-23T11:30:54;9.30;99.90
10431;DHT22;5262;59.958;17.726;2024-02-23T11:33:29;9.20;99.90
10431;DHT22;5262;59.958;17.726;2024-02-23T11:36:09;8.60;99.90
10431;DHT22;5262;59.958;17.726;2024-02-23T11:38:35;7.90;99.90
10431;DHT22;5262;59.958;17.726;2024-02-23T11:41:02;7.40;99.90
10431;DHT22;5262;59.958;17.726;2024-02-23T11:43:29;7.40;99.90
10431;DHT22;5262;59.958;17.726;2024-02-23T11:45:54;7.20;99.90
10431;DHT22;5262;59.958;17.726;2024-02-23T11:48:20;7.30;99.90
10431;DHT22;5262;59.958;17.726;2024-02-23T11:50:48;7.20;99.90
10431;DHT22;5262;59.958;17.726;2024-02-23T11:53:14;7.10;99.90
10431;DHT22;5262;59.958;17.726;2024-02-23T11:55:40;7.10;99.90
10431;DHT22;5262;59.958;17.726;2024-02-23T11:58:06;7.20;99.90
10431;DHT22;5262;59.958;17.726;2024-02-23T12:00:32;7.90;99.90
10431;DHT22;5262;59.958;17.726;2024-02-23T12:02:58;8.40;99.90
10431;DHT22;5262;59.958;17.726;2024-02-23T12:05:24;8.90;99.90
10431;DHT22;5262;59.958;17.726;2024-02-23T12:07:50;9.80;99.90
10431;DHT22;5262;59.958;17.726;2024-02-23T12:10:16;10.10;99.90
10431;DHT22;5262;59.958;17.726;2024-02-23T12:12:42;11.00;99.90
10431;DHT22;5262;59.958;17.726;2024-02-23T12:15:08;11.20;99.90
10431;DHT22;5262;59.958;17.726;2024-02-23T12:17:37;11.30;99.90
10431;DHT22;5262;59.958;17.726;2024-02-23T12:20:03;11.20;99.90
10431;DHT22;5262;59.958;17.726;2024-02-23T12:22:29;11.40;99.90
10431;DHT22;5262;59.958;17.726;2024-02-23T12:25:01;11.30;99.90
10431;DHT22;5262;59.958;17.726;2024-02-23T12:27:28;11.30;99.90
10431;DHT22;5262;59.958;17.726;2024-02-23T12:29:54;11.40;99.90
10431;DHT22;5262;59.958;17.726;2024-02-23T12:32:21;11.10;99.90
10431;DHT22;5262;59.958;17.726;2024-02-23T12:34:47;10.70;99.90
10431;DHT22;5262;59.958;17.726;2024-02-23T12:37:19;10.40;99.90
10431;DHT22;5262;59.958;17.726;2024-02-23T12:39:45;9.40;99.90
10431;DHT22;5262;59.958;17.726;2024-02-23T12:42:11;8.80;99.90
10431;DHT22;5262;59.958;17.726;2024-02-23T12:44:36;8.10;99.90
10431;DHT22;5262;59.958;17.726;2024-02-23T12:47:02;8.90;99.90
10431;DHT22;5262;59.958;17.726;2024-02-23T12:49:28;8.60;99.90
10431;DHT22;5262;59.958;17.726;2024-02-23T12:51:55;9.00;99.90
10431;DHT22;5262;59.958;17.726;2024-02-23T12:54:21;8.70;99.90
10431;DHT22;5262;59.958;17.726;2024-02-23T12:56:46;8.80;99.90
10431;DHT22;5262;59.958;17.726;2024-02-23T12:59:12;8.90;99.90
10431;DHT22;5262;59.958;17.726;2024-02-23T13:01:38;9.20;99.90
10431;DHT22;5262;59.958;17.726;2024-02-23T13:04:05;9.70;99.90
10431;DHT22;5262;59.958;17.726;2024-02-23T13:06:39;9.30;99.90
10431;DHT22;5262;59.958;17.726;2024-02-23T13:09:06;9.60;99.90
10431;DHT22;5262;59.958;17.726;2024-02-23T13:11:37;9.30;99.90
10431;DHT22;5262;59.958;17.726;2024-02-23T13:14:03;9.10;99.90
10431;DHT22;5262;59.958;17.726;2024-02-23T13:16:29;9.40;99.90
10431;DHT22;5262;59.958;17.726;2024-02-23T13:18:55;9.50;99.90
10431;DHT22;5262;59.958;17.726;2024-02-23T13:21:21;9.20;99.90
10431;DHT22;5262;59.958;17.726;2024-02-23T13:23:47;8.60;99.90
10431;DHT22;5262;59.958;17.726;2024-02-23T13:26:12;8.30;99.90
10431;DHT22;5262;59.958;17.726;2024-02-23T13:28:43;8.60;99.90
10431;DHT22;5262;59.958;17.726;2024-02-23T13:31:09;8.40;99.90
10431;DHT22;5262;59.958;17.726;2024-02-23T13:33:35;8.30;99.90
10431;DHT22;5262;59.958;17.726;2024-02-23T13:36:01;8.40;99.90
10431;DHT22;5262;59.958;17.726;2024-02-23T13:38:27;8.30;99.90
10431;DHT22;5262;59.958;17.726;2024-02-23T13:40:53;8.60;99.90
10431;DHT22;5262;59.958;17.726;2024-02-23T13:43:18;8.40;99.90
10431;DHT22;5262;59.958;17.726;2024-02-23T13:45:52;8.20;99.90
10431;DHT22;5262;59.958;17.726;2024-02-23T13:48:18;8.20;99.90
10431;DHT22;5262;59.958;17.726;2024-02-23T13:50:48;8.20;99.90
10431;DHT22;5262;59.958;17.726;2024-02-23T13:53:14;8.10;99.90
10431;DHT22;5262;59.958;17.726;2024-02-23T13:55:40;8.40;99.90
10431;DHT22;5262;59.958;17.726;2024-02-23T13:58:09;8.40;99.90
10431;DHT22;5262;59.958;17.726;2024-02-23T14:00:35;8.10;99.90
10431;DHT22;5262;59.958;17.726;2024-02-23T14:03:01;8.20;99.90
10431;DHT22;5262;59.958;17.726;2024-02-23T14:05:26;8.10;99.90
10431;DHT22;5262;59.958;17.726;2024-02-23T14:07:53;8.30;99.90
10431;DHT22;5262;59.958;17.726;2024-02-23T14:10:19;8.20;99.90
10431;DHT22;5262;59.958;17.726;2024-02-23T14:12:45;8.50;99.90
10431;DHT22;5262;59.958;17.726;2024-02-23T14:15:11;8.60;99.90
10431;DHT22;5262;59.958;17.726;2024-02-23T14:17:38;9.20;99.90
10431;DHT22;5262;59.958;17.726;2024-02-23T14:20:04;9.50;99.90
10431;DHT22;5262;59.958;17.726;2024-02-23T14:22:30;9.20;99.90
10431;DHT22;5262;59.958;17.726;2024-02-23T14:24:57;8.30;99.90
10431;DHT22;5262;59.958;17.726;2024-02-23T14:27:22;8.00;99.90
10431;DHT22;5262;59.958;17.726;2024-02-23T14:29:48;8.00;99.90
10431;DHT22;5262;59.958;17.726;2024-02-23T14:32:16;7.90;99.90
10431;DHT22;5262;59.958;17.726;2024-02-23T14:34:42;7.80;99.90
10431;DHT22;5262;59.958;17.726;2024-02-23T14:37:08;7.80;99.90
10431;DHT22;5262;59.958;17.726;2024-02-23T14:39:33;7.70;99.90
10431;DHT22;5262;59.958;17.726;2024-02-23T14:42:02;7.60;99.90
10431;DHT22;5262;59.958;17.726;2024-02-23T14:44:29;7.60;99.90
10431;DHT22;5262;59.958;17.726;2024-02-23T14:46:54;7.40;99.90
10431;DHT22;5262;59.958;17.726;2024-02-23T14:49:20;7.30;99.90
10431;DHT22;5262;59.958;17.726;2024-02-23T14:51:46;7.00;99.90
10431;DHT22;5262;59.958;17.726;2024-02-23T14:54:14;6.80;99.90
10431;DHT22;5262;59.958;17.726;2024-02-23T14:56:39;6.60;99.90
10431;DHT22;5262;59.958;17.726;2024-02-23T14:59:06;6.50;99.90
10431;DHT22;5262;59.958;17.726;2024-02-23T15:01:38;6.50;99.90
10431;DHT22;5262;59.958;17.726;2024-02-23T15:04:06;6.50;99.90
10431;DHT22;5262;59.958;17.726;2024-02-23T15:06:32;6.40;99.90
10431;DHT22;5262;59.958;17.726;2024-02-23T15:08:57;6.40;99.90
10431;DHT22;5262;59.958;17.726;2024-02-23T15:11:23;6.30;99.90
10431;DHT22;5262;59.958;17.726;2024-02-23T15:13:50;6.30;99.90
10431;DHT22;5262;59.958;17.726;2024-02-23T15:16:17;6.10;99.90
10431;DHT22;5262;59.958;17.726;2024-02-23T15:18:42;6.00;99.90
10431;DHT22;5262;59.958;17.726;2024-02-23T15:21:08;5.90;99.90
10431;DHT22;5262;59.958;17.726;2024-02-23T15:23:34;5.70;99.90
10431;DHT22;5262;59.958;17.726;2024-02-23T15:26:00;5.60;99.90
10431;DHT22;5262;59.958;17.726;2024-02-23T15:28:25;5.60;99.90
10431;DHT22;5262;59.958;17.726;2024-02-23T15:30:51;5.40;99.90
10431;DHT22;5262;59.958;17.726;2024-02-23T15:33:18;5.40;99.90
10431;DHT22;5262;59.958;17.726;2024-02-23T15:35:44;5.30;99.90
10431;DHT22;5262;59.958;17.726;2024-02-23T15:38:09;5.20;99.90
10431;DHT22;5262;59.958;17.726;2024-02-23T15:40:35;5.10;99.90
10431;DHT22;5262;59.958;17.726;2024-02-23T15:43:00;5.10;99.90